createdAt,value
2019-05-06T00:02:04.502Z,5.00
2019-05-06T00:04:34.085Z,4.90
2019-05-06T00:07:04.314Z,4.90
2019-05-06T00:09:34.858Z,4.90
2019-05-06T00:12:04.124Z,5.00
2019-05-06T00:14:33.950Z,4.90
2019-05-06T00:17:03.927Z,4.90
2019-05-06T00:19:34.131Z,4.90
2019-05-06T00:22:04.778Z,4.90
2019-05-06T00:24:38.609Z,4.90
2019-05-06T00:27:14.002Z,4.90
2019-05-06T00:29:43.866Z,4.80
2019-05-06T00:32:14.935Z,4.80
2019-05-06T00:34:43.709Z,4.80
2019-05-06T00:37:14.483Z,4.80
2019-05-06T00:39:53.968Z,4.70
2019-05-06T00:42:24.916Z,4.70
2019-05-06T00:44:54.012Z,4.70
2019-05-06T00:47:24.594Z,4.70
2019-05-06T00:49:54.763Z,4.70
2019-05-06T00:52:25.996Z,4.70
2019-05-06T00:54:54.862Z,4.70
2019-05-06T00:57:25.461Z,4.60
2019-05-06T00:59:54.540Z,4.60
2019-05-06T01:02:23.730Z,4.60
2019-05-06T01:04:54.156Z,4.50
2019-05-06T01:07:23.748Z,4.50
2019-05-06T01:09:54.197Z,4.50
2019-05-06T01:12:24.090Z,4.50
2019-05-06T01:14:54.769Z,4.60
2019-05-06T01:17:24.322Z,4.60
2019-05-06T01:19:54.082Z,4.50
2019-05-06T01:22:24.651Z,4.60
2019-05-06T01:24:55.720Z,4.60
2019-05-06T01:27:24.165Z,4.60
2019-05-06T01:29:54.443Z,4.50
2019-05-06T01:32:23.668Z,4.50
2019-05-06T01:34:53.702Z,4.50
2019-05-06T01:37:24.025Z,4.50
2019-05-06T01:40:04.150Z,4.50
2019-05-06T01:42:37.520Z,4.50
2019-05-06T01:45:06.963Z,4.50
2019-05-06T01:47:35.728Z,4.50
2019-05-06T01:50:06.313Z,4.50
2019-05-06T01:52:35.021Z,4.50
2019-05-06T01:55:05.780Z,4.50
2019-05-06T01:57:34.889Z,4.50
2019-05-06T02:00:06.124Z,4.50
2019-05-06T02:02:35.227Z,4.40
2019-05-06T02:05:05.163Z,4.40
2019-05-06T02:07:34.975Z,4.40
2019-05-06T02:10:07.743Z,4.40
2019-05-06T02:12:36.823Z,4.40
2019-05-06T02:15:06.542Z,4.30
2019-05-06T02:17:35.653Z,4.20
2019-05-06T02:20:08.028Z,4.20
2019-05-06T02:22:41.521Z,4.10
2019-05-06T02:25:13.845Z,4.10
2019-05-06T02:27:44.407Z,4.00
2019-05-06T02:30:25.277Z,4.00
2019-05-06T02:32:56.240Z,3.90
2019-05-06T02:35:26.965Z,3.80
2019-05-06T02:37:56.078Z,3.70
2019-05-06T02:40:28.027Z,3.70
2019-05-06T02:42:57.242Z,3.70
2019-05-06T02:45:27.144Z,3.60
2019-05-06T02:48:04.455Z,3.60
2019-05-06T02:50:47.368Z,3.50
2019-05-06T02:53:18.080Z,3.40
2019-05-06T02:55:46.780Z,3.40
2019-05-06T02:58:15.864Z,3.30
2019-05-06T03:00:44.643Z,3.30
2019-05-06T03:03:14.149Z,3.20
2019-05-06T03:05:43.890Z,3.20
2019-05-06T03:08:13.830Z,3.10
2019-05-06T03:10:44.346Z,3.00
2019-05-06T03:13:14.440Z,2.90
2019-05-06T03:15:43.908Z,2.80
2019-05-06T03:18:14.728Z,2.70
2019-05-06T03:20:55.859Z,2.70
2019-05-06T03:23:26.429Z,2.70
2019-05-06T03:25:55.395Z,2.60
2019-05-06T03:28:24.578Z,2.60
2019-05-06T03:30:56.460Z,2.60
2019-05-06T03:33:47.648Z,2.50
2019-05-06T03:36:06.491Z,2.50
2019-05-06T03:38:25.589Z,2.40
2019-05-06T03:40:54.888Z,2.40
2019-05-06T03:43:23.584Z,2.30
2019-05-06T03:46:04.330Z,2.30
2019-05-06T03:48:35.487Z,2.30
2019-05-06T03:51:04.628Z,2.30
2019-05-06T03:53:36.036Z,2.30
2019-05-06T03:56:05.442Z,2.30
2019-05-06T03:58:37.476Z,2.20
2019-05-06T04:01:06.697Z,2.20
2019-05-06T04:03:46.770Z,2.20
2019-05-06T04:06:06.112Z,2.20
2019-05-06T04:08:35.527Z,2.20
2019-05-06T04:11:05.047Z,2.20
2019-05-06T04:13:35.007Z,2.20
2019-05-06T04:16:08.863Z,2.20
2019-05-06T04:18:43.588Z,2.10
2019-05-06T04:21:19.340Z,2.10
2019-05-06T04:23:56.032Z,2.10
2019-05-06T04:26:26.844Z,2.10
2019-05-06T04:28:55.955Z,2.10
2019-05-06T04:31:26.094Z,2.10
2019-05-06T04:34:08.399Z,2.10
2019-05-06T04:36:26.195Z,2.10
2019-05-06T04:38:55.337Z,2.10
2019-05-06T04:41:26.820Z,2.10
2019-05-06T04:43:54.782Z,2.10
2019-05-06T04:46:23.794Z,2.10
2019-05-06T04:48:53.799Z,2.10
2019-05-06T04:51:24.797Z,2.20
2019-05-06T04:53:53.908Z,2.20
2019-05-06T04:56:23.729Z,2.10
2019-05-06T04:58:53.903Z,2.20
2019-05-06T05:01:23.505Z,2.20
2019-05-06T05:03:53.913Z,2.20
2019-05-06T05:06:23.385Z,2.20
2019-05-06T05:08:53.346Z,2.20
2019-05-06T05:11:36.206Z,2.20
2019-05-06T05:14:07.563Z,2.20
2019-05-06T05:16:50.159Z,2.30
2019-05-06T05:19:19.261Z,2.30
2019-05-06T05:21:48.546Z,2.30
2019-05-06T05:24:17.274Z,2.30
2019-05-06T05:26:47.117Z,2.40
2019-05-06T05:29:16.862Z,2.40
2019-05-06T05:31:45.585Z,2.50
2019-05-06T05:34:15.270Z,2.60
2019-05-06T05:36:44.021Z,2.70
2019-05-06T05:39:13.032Z,3.00
2019-05-06T05:41:42.910Z,3.30
2019-05-06T05:44:16.884Z,3.60
2019-05-06T05:46:45.606Z,4.20
2019-05-06T05:49:21.744Z,4.90
2019-05-06T05:51:48.875Z,5.50
2019-05-06T05:54:18.484Z,6.10
2019-05-06T05:56:48.806Z,6.60
2019-05-06T05:59:17.558Z,6.90
2019-05-06T06:01:46.583Z,6.90
2019-05-06T06:04:15.698Z,7.00
2019-05-06T06:06:44.787Z,7.00
2019-05-06T06:09:13.900Z,7.10
2019-05-06T06:11:53.445Z,7.20
2019-05-06T06:14:43.732Z,7.30
2019-05-06T06:17:26.726Z,7.30
2019-05-06T06:19:57.502Z,7.30
2019-05-06T06:22:29.333Z,7.40
2019-05-06T06:24:58.222Z,7.20
2019-05-06T06:27:28.975Z,7.10
2019-05-06T06:29:57.683Z,7.10
2019-05-06T06:32:28.490Z,7.00
2019-05-06T06:35:10.113Z,7.40
2019-05-06T06:37:43.581Z,7.70
2019-05-06T06:40:14.033Z,7.80
2019-05-06T06:42:43.214Z,7.90
2019-05-06T06:45:12.410Z,8.00
2019-05-06T06:47:42.532Z,8.00
2019-05-06T06:50:12.651Z,8.30
2019-05-06T06:52:42.206Z,8.50
2019-05-06T06:55:12.968Z,8.80
2019-05-06T06:57:56.898Z,9.20
2019-05-06T07:00:44.990Z,9.80
2019-05-06T07:03:15.920Z,10.20
2019-05-06T07:05:47.584Z,10.10
2019-05-06T07:08:16.323Z,10.20
2019-05-06T07:10:45.451Z,10.50
2019-05-06T07:13:15.685Z,10.60
2019-05-06T07:15:44.615Z,10.70
2019-05-06T07:18:13.764Z,10.90
2019-05-06T07:21:03.311Z,10.80
2019-05-06T07:23:32.698Z,10.90
2019-05-06T07:26:03.089Z,11.40
2019-05-06T07:28:33.002Z,11.90
2019-05-06T07:31:17.505Z,12.00
2019-05-06T07:33:33.495Z,11.70
2019-05-06T07:36:02.589Z,11.60
2019-05-06T07:38:32.655Z,11.40
2019-05-06T07:41:06.394Z,11.50
2019-05-06T07:43:52.629Z,11.90
2019-05-06T07:46:33.150Z,12.40
2019-05-06T07:49:03.329Z,12.00
2019-05-06T07:51:32.758Z,12.40
2019-05-06T07:54:02.812Z,12.40
2019-05-06T07:56:32.393Z,12.40
2019-05-06T07:59:09.844Z,12.40
2019-05-06T08:01:43.801Z,12.60
2019-05-06T08:04:12.086Z,12.80
2019-05-06T08:06:42.728Z,13.10
2019-05-06T08:09:13.032Z,13.10
2019-05-06T08:11:42.637Z,12.80
2019-05-06T08:14:13.125Z,12.70
2019-05-06T08:16:44.470Z,12.10
2019-05-06T08:19:14.037Z,12.20
2019-05-06T08:21:47.221Z,12.70
2019-05-06T08:24:15.502Z,13.20
2019-05-06T08:26:44.258Z,13.00
2019-05-06T08:29:15.846Z,13.10
2019-05-06T08:31:43.803Z,13.80
2019-05-06T08:34:12.896Z,14.00
2019-05-06T08:36:43.638Z,13.90
2019-05-06T08:39:14.065Z,13.90
2019-05-06T08:41:43.149Z,14.10
2019-05-06T08:44:12.759Z,14.20
2019-05-06T08:46:43.242Z,15.00
2019-05-06T08:49:12.489Z,15.00
2019-05-06T08:51:53.086Z,14.60
2019-05-06T08:54:26.881Z,14.20
2019-05-06T08:56:56.076Z,13.10
2019-05-06T08:59:25.160Z,12.50
2019-05-06T09:01:58.443Z,12.80
2019-05-06T09:04:27.671Z,13.00
2019-05-06T09:06:56.760Z,13.60
2019-05-06T09:09:25.852Z,14.30
2019-05-06T09:11:54.591Z,14.80
2019-05-06T09:14:23.908Z,15.30
2019-05-06T09:16:54.049Z,15.70
2019-05-06T09:19:23.523Z,15.90
2019-05-06T09:21:53.362Z,14.90
2019-05-06T09:24:23.303Z,13.90
2019-05-06T09:27:09.193Z,14.00
2019-05-06T09:29:39.917Z,14.40
2019-05-06T09:32:13.915Z,14.50
2019-05-06T09:34:44.983Z,14.50
2019-05-06T09:37:23.535Z,14.70
2019-05-06T09:39:53.477Z,14.90
2019-05-06T09:42:23.053Z,14.90
2019-05-06T09:44:54.265Z,15.20
2019-05-06T09:47:27.197Z,15.20
2019-05-06T09:49:55.442Z,15.90
2019-05-06T09:52:24.537Z,15.90
2019-05-06T09:55:03.945Z,15.50
2019-05-06T09:57:34.415Z,15.00
2019-05-06T10:00:04.901Z,14.70
2019-05-06T10:02:34.046Z,14.60
2019-05-06T10:05:03.723Z,14.90
2019-05-06T10:07:33.897Z,14.80
2019-05-06T10:10:03.460Z,15.20
2019-05-06T10:12:32.964Z,15.40
2019-05-06T10:15:03.169Z,15.40
2019-05-06T10:17:33.222Z,15.30
2019-05-06T10:20:02.841Z,15.30
2019-05-06T10:22:32.456Z,14.90
2019-05-06T10:25:03.731Z,15.40
2019-05-06T10:27:33.199Z,16.00
2019-05-06T10:30:03.933Z,16.30
2019-05-06T10:32:37.534Z,16.40
2019-05-06T10:35:08.122Z,15.80
2019-05-06T10:37:49.505Z,15.90
2019-05-06T10:40:22.640Z,15.60
2019-05-06T10:43:06.772Z,15.60
2019-05-06T10:45:35.525Z,15.80
2019-05-06T10:48:04.660Z,16.40
2019-05-06T10:50:35.062Z,16.10
2019-05-06T10:53:17.700Z,15.40
2019-05-06T10:55:54.489Z,15.00
2019-05-06T10:58:23.763Z,14.50
2019-05-06T11:01:03.732Z,14.70
2019-05-06T11:03:33.131Z,15.40
2019-05-06T11:06:02.733Z,15.30
2019-05-06T11:08:32.628Z,16.00
2019-05-06T11:11:14.814Z,16.30
2019-05-06T11:13:32.796Z,16.50
2019-05-06T11:16:03.354Z,16.30
2019-05-06T11:18:33.485Z,16.60
2019-05-06T11:21:03.447Z,16.70
2019-05-06T11:23:33.729Z,17.20
2019-05-06T11:26:03.344Z,17.20
2019-05-06T11:28:46.748Z,16.50
2019-05-06T11:31:22.817Z,15.10
2019-05-06T11:34:01.871Z,14.40
2019-05-06T11:36:38.600Z,13.40
2019-05-06T11:39:09.139Z,13.00
2019-05-06T11:41:38.214Z,13.10
2019-05-06T11:44:09.213Z,13.30
2019-05-06T11:46:38.066Z,13.60
2019-05-06T11:49:06.956Z,14.00
2019-05-06T11:51:36.046Z,13.80
2019-05-06T11:54:16.475Z,13.90
2019-05-06T11:56:47.921Z,14.20
2019-05-06T11:59:08.877Z,14.20
2019-05-06T12:01:43.423Z,14.60
2019-05-06T12:04:13.888Z,14.70
2019-05-06T12:06:42.856Z,14.80
2019-05-06T12:09:16.584Z,14.60
2019-05-06T12:11:43.231Z,14.80
2019-05-06T12:14:12.693Z,15.00
2019-05-06T12:16:41.611Z,14.90
2019-05-06T12:19:12.892Z,14.70
2019-05-06T12:21:43.120Z,15.10
2019-05-06T12:24:12.436Z,15.60
2019-05-06T12:26:42.841Z,15.70
2019-05-06T12:29:12.710Z,15.60
2019-05-06T12:31:42.338Z,15.60
2019-05-06T12:34:14.473Z,15.90
2019-05-06T12:36:42.853Z,15.80
2019-05-06T12:39:15.725Z,15.70
2019-05-06T12:41:53.474Z,15.60
2019-05-06T12:44:23.140Z,15.40
2019-05-06T12:47:12.946Z,15.00
2019-05-06T12:49:42.575Z,14.50
2019-05-06T12:52:12.328Z,14.20
2019-05-06T12:54:42.911Z,14.30
2019-05-06T12:57:12.700Z,14.60
2019-05-06T12:59:42.567Z,14.90
2019-05-06T13:02:13.234Z,15.10
2019-05-06T13:04:51.621Z,15.20
2019-05-06T13:07:14.743Z,15.50
2019-05-06T13:09:45.490Z,15.40
2019-05-06T13:12:16.268Z,15.50
2019-05-06T13:14:44.988Z,15.40
2019-05-06T13:17:15.672Z,15.50
2019-05-06T13:19:44.431Z,15.20
2019-05-06T13:22:14.796Z,15.10
2019-05-06T13:24:43.629Z,15.10
2019-05-06T13:27:13.928Z,15.20
2019-05-06T13:29:43.015Z,15.10
2019-05-06T13:32:13.618Z,15.30
2019-05-06T13:34:42.523Z,14.70
2019-05-06T13:37:12.949Z,14.90
2019-05-06T13:39:43.491Z,15.40
2019-05-06T13:42:13.775Z,15.60
2019-05-06T13:44:42.655Z,15.30
2019-05-06T13:47:13.550Z,15.30
2019-05-06T13:49:44.275Z,14.80
2019-05-06T13:52:13.032Z,14.60
2019-05-06T13:54:42.316Z,14.50
2019-05-06T13:57:12.577Z,14.80
2019-05-06T13:59:44.083Z,15.00
2019-05-06T14:02:17.444Z,15.00
2019-05-06T14:04:46.559Z,14.80
2019-05-06T14:07:15.294Z,14.60
2019-05-06T14:09:44.062Z,14.10
2019-05-06T14:12:12.849Z,14.20
2019-05-06T14:14:43.316Z,14.70
2019-05-06T14:17:12.909Z,15.10
2019-05-06T14:19:42.972Z,15.50
2019-05-06T14:22:12.696Z,15.60
2019-05-06T14:24:43.827Z,15.80
2019-05-06T14:27:13.131Z,15.70
2019-05-06T14:29:46.624Z,15.80
2019-05-06T14:32:15.722Z,15.50
2019-05-06T14:34:44.803Z,15.00
2019-05-06T14:37:14.834Z,14.10
2019-05-06T14:39:53.882Z,13.40
2019-05-06T14:42:18.652Z,12.80
2019-05-06T14:44:47.778Z,12.10
2019-05-06T14:47:23.120Z,11.60
2019-05-06T14:49:53.003Z,11.50
2019-05-06T14:52:22.768Z,11.50
2019-05-06T14:54:53.622Z,11.50
2019-05-06T14:57:24.210Z,11.50
2019-05-06T14:59:55.485Z,11.40
2019-05-06T15:02:26.880Z,11.50
2019-05-06T15:04:56.104Z,11.50
2019-05-06T15:07:25.316Z,11.60
2019-05-06T15:10:14.698Z,11.70
2019-05-06T15:12:25.118Z,12.10
2019-05-06T15:14:54.226Z,12.20
2019-05-06T15:17:23.440Z,12.40
2019-05-06T15:19:52.911Z,12.50
2019-05-06T15:22:22.606Z,12.80
2019-05-06T15:24:53.627Z,13.30
2019-05-06T15:27:22.860Z,13.30
2019-05-06T15:29:55.588Z,13.30
2019-05-06T15:32:26.297Z,13.30
2019-05-06T15:35:02.330Z,13.30
2019-05-06T15:37:44.186Z,13.20
2019-05-06T15:40:13.837Z,12.90
2019-05-06T15:42:42.705Z,13.00
2019-05-06T15:45:12.620Z,12.80
2019-05-06T15:47:42.731Z,12.70
2019-05-06T15:50:12.886Z,12.60
2019-05-06T15:52:43.475Z,12.40
2019-05-06T15:55:13.474Z,12.40
2019-05-06T15:57:43.506Z,12.30
2019-05-06T16:00:15.664Z,12.00
2019-05-06T16:02:44.429Z,11.90
2019-05-06T16:05:19.559Z,11.90
2019-05-06T16:07:44.165Z,11.80
2019-05-06T16:10:15.109Z,11.80
2019-05-06T16:12:49.435Z,11.90
2019-05-06T16:15:18.846Z,11.70
2019-05-06T16:17:47.560Z,11.60
2019-05-06T16:20:16.918Z,11.60
2019-05-06T16:22:47.294Z,11.40
2019-05-06T16:25:17.202Z,11.50
2019-05-06T16:27:50.995Z,11.60
2019-05-06T16:30:19.568Z,11.40
2019-05-06T16:32:48.303Z,11.40
2019-05-06T16:35:17.233Z,11.50
2019-05-06T16:37:47.237Z,11.60
2019-05-06T16:40:17.062Z,11.60
2019-05-06T16:42:46.295Z,11.60
2019-05-06T16:45:18.738Z,11.60
2019-05-06T16:47:46.838Z,11.60
2019-05-06T16:50:18.288Z,11.40
2019-05-06T16:52:47.015Z,11.30
2019-05-06T16:55:19.740Z,11.20
2019-05-06T16:57:52.351Z,11.10
2019-05-06T17:00:22.639Z,11.00
2019-05-06T17:02:57.979Z,10.90
2019-05-06T17:05:43.358Z,10.90
2019-05-06T17:08:12.472Z,10.90
2019-05-06T17:10:43.093Z,10.70
2019-05-06T17:13:12.637Z,10.60
2019-05-06T17:15:41.540Z,10.40
2019-05-06T17:18:12.246Z,10.30
2019-05-06T17:20:42.708Z,9.90
2019-05-06T17:23:13.125Z,9.40
2019-05-06T17:25:42.420Z,9.40
2019-05-06T17:28:25.252Z,9.40
2019-05-06T17:31:08.237Z,9.30
2019-05-06T17:33:42.839Z,9.10
2019-05-06T17:36:13.821Z,9.00
2019-05-06T17:38:53.330Z,9.10
2019-05-06T17:41:23.774Z,9.10
2019-05-06T17:43:52.757Z,9.00
2019-05-06T17:46:26.153Z,8.80
2019-05-06T17:49:05.694Z,8.70
2019-05-06T17:51:39.204Z,8.70
2019-05-06T17:54:08.283Z,8.60
2019-05-06T17:56:37.383Z,8.60
2019-05-06T17:59:06.486Z,8.60
2019-05-06T18:01:42.956Z,8.50
2019-05-06T18:04:12.684Z,8.40
2019-05-06T18:06:42.380Z,8.40
2019-05-06T18:09:12.804Z,8.50
2019-05-06T18:11:42.415Z,8.50
2019-05-06T18:14:12.535Z,8.40
2019-05-06T18:16:42.747Z,8.40
2019-05-06T18:19:12.631Z,8.20
2019-05-06T18:21:41.649Z,8.30
2019-05-06T18:24:12.711Z,8.30
2019-05-06T18:26:42.151Z,8.20
2019-05-06T18:29:12.603Z,8.30
2019-05-06T18:31:42.756Z,8.20
2019-05-06T18:34:12.869Z,8.20
2019-05-06T18:36:42.928Z,8.10
2019-05-06T18:39:12.701Z,8.10
2019-05-06T18:41:42.175Z,8.10
2019-05-06T18:44:11.998Z,8.00
2019-05-06T18:46:42.022Z,8.10
2019-05-06T18:49:13.035Z,8.10
2019-05-06T18:51:42.665Z,8.10
2019-05-06T18:54:12.386Z,7.80
2019-05-06T18:56:42.943Z,7.70
2019-05-06T18:59:12.331Z,7.60
2019-05-06T19:01:43.339Z,7.50
2019-05-06T19:04:13.747Z,7.60
2019-05-06T19:06:42.585Z,7.50
2019-05-06T19:09:13.245Z,7.50
2019-05-06T19:11:42.348Z,7.40
2019-05-06T19:14:12.663Z,7.30
2019-05-06T19:16:49.899Z,7.40
2019-05-06T19:19:12.529Z,7.30
2019-05-06T19:21:42.827Z,7.30
2019-05-06T19:24:12.323Z,7.30
2019-05-06T19:26:43.003Z,7.30
2019-05-06T19:29:12.432Z,7.20
2019-05-06T19:31:42.525Z,7.10
2019-05-06T19:34:13.038Z,7.00
2019-05-06T19:36:42.329Z,6.90
2019-05-06T19:39:12.653Z,6.80
2019-05-06T19:41:42.075Z,6.60
2019-05-06T19:44:12.885Z,6.60
2019-05-06T19:46:42.479Z,6.60
2019-05-06T19:49:11.902Z,6.50
2019-05-06T19:51:42.696Z,6.40
2019-05-06T19:54:12.602Z,6.30
2019-05-06T19:56:42.394Z,6.20
2019-05-06T19:59:12.927Z,6.10
2019-05-06T20:01:42.956Z,6.20
2019-05-06T20:04:13.182Z,6.10
2019-05-06T20:06:46.836Z,6.00
2019-05-06T20:09:23.314Z,5.80
2019-05-06T20:11:56.417Z,5.80
2019-05-06T20:14:25.141Z,5.70
2019-05-06T20:16:54.282Z,5.70
2019-05-06T20:19:30.859Z,5.60
2019-05-06T20:21:53.442Z,5.50
2019-05-06T20:24:23.165Z,5.50
2019-05-06T20:26:52.723Z,5.40
2019-05-06T20:29:22.399Z,5.30
2019-05-06T20:31:53.493Z,5.20
2019-05-06T20:34:22.575Z,5.20
2019-05-06T20:36:52.831Z,5.00
2019-05-06T20:39:22.982Z,5.00
2019-05-06T20:41:52.440Z,5.00
2019-05-06T20:44:23.055Z,4.90
2019-05-06T20:46:52.752Z,4.90
2019-05-06T20:49:21.888Z,4.90
2019-05-06T20:51:52.138Z,4.90
2019-05-06T20:54:23.694Z,4.80
2019-05-06T20:56:53.144Z,4.70
2019-05-06T20:59:23.042Z,4.70
2019-05-06T21:01:51.924Z,4.70
2019-05-06T21:04:22.900Z,4.70
2019-05-06T21:06:51.809Z,4.60
2019-05-06T21:09:23.109Z,4.60
2019-05-06T21:11:52.744Z,4.60
2019-05-06T21:14:22.698Z,4.60
2019-05-06T21:16:52.057Z,4.60
2019-05-06T21:19:22.262Z,4.50
2019-05-06T21:21:52.753Z,4.50
2019-05-06T21:24:22.651Z,4.40
2019-05-06T21:26:53.104Z,4.40
2019-05-06T21:29:23.248Z,4.40
2019-05-06T21:31:53.138Z,4.30
2019-05-06T21:34:22.393Z,4.30
2019-05-06T21:36:53.256Z,4.30
2019-05-06T21:39:22.493Z,4.20
2019-05-06T21:41:52.154Z,4.20
2019-05-06T21:44:22.890Z,4.20
2019-05-06T21:46:53.894Z,4.20
2019-05-06T21:49:22.960Z,4.10
2019-05-06T21:51:51.858Z,4.10
2019-05-06T21:54:23.018Z,4.10
2019-05-06T21:56:53.198Z,4.10
2019-05-06T21:59:21.981Z,4.10
2019-05-06T22:01:52.069Z,4.10
2019-05-06T22:04:23.206Z,4.00
2019-05-06T22:06:52.525Z,4.00
2019-05-06T22:09:22.584Z,4.00
2019-05-06T22:11:52.967Z,3.90
2019-05-06T22:14:22.978Z,3.80
2019-05-06T22:16:52.495Z,3.70
2019-05-06T22:19:21.605Z,3.60
2019-05-06T22:22:12.120Z,3.50
2019-05-06T22:24:55.165Z,3.40
2019-05-06T22:27:22.189Z,3.40
2019-05-06T22:29:52.223Z,3.30
2019-05-06T22:32:23.234Z,3.30
2019-05-06T22:34:51.940Z,3.30
2019-05-06T22:37:22.096Z,3.30
2019-05-06T22:39:52.754Z,3.30
2019-05-06T22:42:22.573Z,3.30
2019-05-06T22:44:51.924Z,3.20
2019-05-06T22:47:22.952Z,3.30
2019-05-06T22:49:54.035Z,3.20
2019-05-06T22:52:22.151Z,3.00
2019-05-06T22:54:52.721Z,3.10
2019-05-06T22:57:23.380Z,3.10
2019-05-06T22:59:52.404Z,3.10
2019-05-06T23:02:23.352Z,3.00
2019-05-06T23:04:54.090Z,3.00
2019-05-06T23:07:23.078Z,2.90
2019-05-06T23:09:52.243Z,2.90
2019-05-06T23:12:23.025Z,2.80
2019-05-06T23:14:52.805Z,2.80
2019-05-06T23:17:22.120Z,2.80
2019-05-06T23:19:52.793Z,2.70
2019-05-06T23:22:22.750Z,2.70
2019-05-06T23:24:54.097Z,2.70
2019-05-06T23:27:23.368Z,2.70
2019-05-06T23:29:52.688Z,2.70
2019-05-06T23:32:22.878Z,2.50
2019-05-06T23:34:52.392Z,2.50
2019-05-06T23:37:22.491Z,2.40
2019-05-06T23:40:28.508Z,2.40
2019-05-06T23:43:33.236Z,2.30
2019-05-06T23:46:38.146Z,2.30
2019-05-06T23:49:43.652Z,2.20
2019-05-06T23:52:49.112Z,2.20
2019-05-06T23:55:53.764Z,2.10
2019-05-06T23:58:22.480Z,2.10
